Monday, October 22, 2018, 1:53 AM GMT
Back to Local

CYHU, Saint Hubert Airport

Location: , , Canada Lat: 45.517
Local Time: 1:53 AM GMT ( 1:53 GMT) Lon: -73.417
Time Zone: GMT Elev: 88 ft

Show me the last for .
Show Decoded

2018-10-22 01:00 METAR CYHU 220100Z AUTO 29010G16KT 9SM CLR 02/M06 A3002 RMK SLP167 =
2018-10-22 00:00 METAR CYHU 220000Z AUTO 28011G16KT 9SM BKN065 03/M06 A3001 RMK SLP164 =
2018-10-21 23:00 METAR CYHU 212300Z AUTO 27014G20KT 9SM OVC070 03/M07 A2999 RMK SLP160 =
2018-10-21 22:00 METAR CYHU 212200Z AUTO 29011G16KT 9SM SCT070 03/M07 A2998 RMK SLP154 =
2018-10-21 21:00 METAR CYHU 212100Z AUTO 29014G20KT 9SM OVC065 04/M07 A2995 RMK SLP146 =
2018-10-21 20:00 METAR CYHU 212000Z AUTO 30012G22KT 9SM OVC055 04/M06 A2994 RMK SLP141 =
2018-10-21 19:00 METAR CYHU 211900Z AUTO 29015G21KT 9SM OVC055 04/M07 A2993 RMK SLP137 =
2018-10-21 18:00 METAR CYHU 211800Z AUTO 28016G23KT 9SM BKN055 05/M07 A2992 RMK SLP134 =
2018-10-21 17:00 METAR CYHU 211700Z AUTO 31015G20KT 9SM OVC050 04/M07 A2991 RMK SLP133 =
2018-10-21 16:00 METAR CYHU 211600Z AUTO 31017G22KT 9SM OVC050 03/M07 A2992 RMK SLP134 =
2018-10-21 15:00 METAR CYHU 211500Z AUTO 32017G22KT 9SM OVC042 03/M06 A2991 RMK SLP130 =
2018-10-21 14:00 METAR CYHU 211400Z AUTO 30009G19KT 9SM OVC042 03/M06 A2989 RMK SLP125 =
2018-10-21 13:00 METAR CYHU 211300Z AUTO 30013G18KT 9SM OVC044 03/M06 A2987 RMK SLP117 =
2018-10-21 12:00 METAR CYHU 211200Z AUTO 31012G20KT 9SM OVC042 02/M06 A2985 RMK PRESRR SLP109 =
2018-10-21 11:00 METAR CYHU 211100Z AUTO 31014G21KT 9SM OVC044 03/M06 A2980 RMK SLP094 =
2018-10-21 10:00 METAR CYHU 211000Z AUTO 30011G16KT 9SM SCT038 BKN048 03/M04 A2978 RMK SLP085 =
2018-10-21 09:00 METAR CYHU 210900Z AUTO 29012KT 9SM OVC040 03/M04 A2976 RMK SLP079 =
2018-10-21 08:00 METAR CYHU 210800Z AUTO 28008KT 9SM OVC041 03/M03 A2974 RMK SLP072 =
2018-10-21 07:00 METAR CYHU 210700Z AUTO 30008KT 9SM BKN039 03/M02 A2972 RMK SLP066 =
2018-10-21 06:00 METAR CYHU 210600Z AUTO 28007KT 9SM BKN037 04/M02 A2971 RMK SLP062 =
2018-10-21 05:00 METAR CYHU 210500Z AUTO 30007KT 9SM CLR 03/M02 A2969 RMK SLP057 =
2018-10-21 04:00 METAR CYHU 210400Z AUTO 33009KT 9SM BKN070 BKN080 04/M02 A2967 RMK SLP049 =
2018-10-21 03:00 METAR CYHU 210300Z AUTO 32009G16KT 9SM BKN065 BKN081 05/M01 A2964 RMK SLP039 =
2018-10-21 02:00 METAR CYHU 210200Z AUTO 31009KT 9SM BKN070 OVC085 06/M00 A2961 RMK SLP030 =

Support USWX by starting your Amazon purchase here.